Time;durP1;ratioP1;P1;durP2;ratioP2;P2;SDS_P1;SDS_P2;PMS_P1;PMS_P2;Temp;Humidity;BMP_temperature;BMP_pressure;BME280_temperature;BME280_humidity;BME280_pressure;Samples;Min_cycle;Max_cycle;Signal;HPM_P1;HPM_P2
2022/08/01 00:00:37;;;;;;;4.57;4.27;;;;;;;23.94;57.61;94753.44;5036850;28;20466;-80
2022/08/01 00:03:04;;;;;;;3.77;3.57;;;;;;;24.10;55.32;94751.06;5036535;28;20862;-80
2022/08/01 00:05:31;;;;;;;4.23;3.93;;;;;;;24.15;57.27;94746.91;5036253;28;20494;-80
2022/08/01 00:08:01;;;;;;;3.87;3.57;;;;;;;24.21;56.87;94743.34;5035967;28;20969;-79
2022/08/01 00:10:29;;;;;;;5.47;5.07;;;;;;;24.33;58.66;94747.03;5036014;28;20450;-80
2022/08/01 00:12:56;;;;;;;6.33;5.93;;;;;;;24.42;57.43;94748.38;5036588;28;20451;-81
2022/08/01 00:15:23;;;;;;;7.23;5.40;;;;;;;24.39;57.56;94756.88;5036845;28;20936;-81
2022/08/01 00:17:49;;;;;;;6.50;6.00;;;;;;;24.43;58.81;94749.19;5036998;28;20450;-82
2022/08/01 00:20:16;;;;;;;6.13;5.53;;;;;;;24.52;58.02;94753.25;5036797;28;20469;-81
2022/08/01 00:22:43;;;;;;;6.53;5.93;;;;;;;24.00;58.96;94753.41;5018084;28;20521;-82
2022/08/01 00:25:10;;;;;;;11.93;6.93;;;;;;;24.01;59.14;94759.59;5036680;28;20462;-81
2022/08/01 00:27:38;;;;;;;7.07;6.57;;;;;;;23.87;59.54;94758.84;5036837;28;20507;-81
2022/08/01 00:30:06;;;;;;;6.60;6.10;;;;;;;23.71;60.57;94765.53;5036243;28;20452;-80
2022/08/01 00:32:33;;;;;;;7.10;6.60;;;;;;;23.02;62.79;94754.63;5036476;28;20441;-81
2022/08/01 00:35:00;;;;;;;7.90;7.20;;;;;;;22.92;64.42;94763.09;5036415;28;20438;-80
2022/08/01 00:37:27;;;;;;;8.97;8.13;;;;;;;22.75;64.16;94760.00;5036081;28;20944;-81
2022/08/01 00:39:54;;;;;;;9.33;8.63;;;;;;;22.16;nan;94755.50;5036046;28;20450;-81
2022/08/01 00:42:21;;;;;;;8.90;8.13;;;;;;;21.96;67.20;94757.28;5035329;28;20442;-81
2022/08/01 00:44:49;;;;;;;8.87;7.97;;;;;;;21.85;67.96;94755.22;5036097;28;20455;-81
2022/08/01 00:47:16;;;;;;;8.00;7.47;;;;;;;21.97;67.63;94761.59;5036474;28;20486;-81
2022/08/01 00:49:43;;;;;;;7.57;7.03;;;;;;;22.21;66.67;94758.38;5017449;28;20493;-81
2022/08/01 00:52:10;;;;;;;10.33;7.43;;;;;;;22.20;66.71;94761.25;5036184;28;20451;-82
2022/08/01 00:54:37;;;;;;;8.17;7.37;;;;;;;21.93;67.27;94755.00;5036101;28;20445;-81
2022/08/01 00:57:04;;;;;;;9.40;8.60;;;;;;;22.13;66.79;94763.91;5036283;28;20520;-81
2022/08/01 00:59:31;;;;;;;8.60;7.90;;;;;;;22.49;65.98;94760.84;5036150;28;20477;-81
2022/08/01 01:01:59;;;;;;;8.93;7.73;;;;;;;22.44;65.68;94751.78;5036228;28;20455;-81
2022/08/01 01:04:28;;;;;;;9.60;8.80;;;;;;;22.60;65.37;94756.75;5035772;28;20454;-81
2022/08/01 01:07:07;;;;;;;8.33;7.73;;;;;;;22.99;64.60;94742.50;5035372;28;21008;-81
2022/08/01 01:09:40;;;;;;;7.03;6.53;;;;;;;22.85;63.82;94739.03;5035667;28;20465;-81
2022/08/01 01:12:23;;;;;;;8.43;7.80;;;;;;;23.24;63.67;94737.25;5017335;28;20446;-81
2022/08/01 01:14:57;;;;;;;7.90;7.30;;;;;;;23.49;62.87;94740.88;5035724;28;20453;-81
2022/08/01 01:17:32;;;;;;;7.93;7.33;;;;;;;23.68;61.57;94731.09;5035766;28;20500;-80
2022/08/01 01:20:03;;;;;;;8.43;7.73;;;;;;;23.90;61.54;94728.09;5035276;28;20941;-82
2022/08/01 01:22:48;;;;;;;7.47;6.87;;;;;;;23.95;61.28;94729.09;5035605;28;20759;-80
2022/08/01 01:25:33;;;;;;;8.20;7.50;;;;;;;24.03;60.92;94726.16;5035002;28;20441;-80
2022/08/01 01:28:15;;;;;;;7.10;6.50;;;;;;;24.01;60.46;94733.59;5034960;28;20446;-81
2022/08/01 01:30:47;;;;;;;7.13;6.53;;;;;;;24.02;60.27;94729.88;5034735;28;20427;-81
2022/08/01 01:33:15;;;;;;;6.10;5.60;;;;;;;23.97;60.31;94726.19;5034846;28;20458;-81
2022/08/01 01:35:47;;;;;;;6.23;5.70;;;;;;;24.00;60.40;94723.91;5016140;28;20449;-81
2022/08/01 01:38:19;;;;;;;6.30;5.90;;;;;;;23.99;60.00;94718.75;5034519;28;20817;-81
2022/08/01 01:40:47;;;;;;;6.37;5.73;;;;;;;24.02;60.19;94718.34;5035166;28;20427;-81
2022/08/01 01:43:16;;;;;;;11.47;6.97;;;;;;;24.03;59.59;94719.97;5035230;28;20485;-81
2022/08/01 01:45:46;;;;;;;6.00;5.60;;;;;;;24.01;59.34;94706.78;5035299;28;20501;-80
2022/08/01 01:48:16;;;;;;;6.07;5.67;;;;;;;23.98;59.40;94712.56;5035406;28;20471;-81
2022/08/01 01:50:44;;;;;;;5.70;5.30;;;;;;;23.90;59.07;94704.78;5034968;28;21273;-81
2022/08/01 01:53:13;;;;;;;6.43;4.70;;;;;;;23.96;58.50;94720.00;5035406;28;20799;-81
2022/08/01 01:55:41;;;;;;;5.50;5.10;;;;;;;23.94;58.92;94703.31;5016358;28;20453;-79
2022/08/01 01:58:12;;;;;;;6.73;6.07;;;;;;;23.93;58.44;94708.91;5034424;28;20450;-81
2022/08/01 02:00:40;;;;;;;6.00;5.60;;;;;;;23.93;58.42;94706.22;5034170;28;21046;-81
2022/08/01 02:03:11;;;;;;;5.10;4.70;;;;;;;23.79;57.59;94702.81;5034528;28;20453;-82
2022/08/01 02:05:39;;;;;;;6.37;5.30;;;;;;;23.82;57.99;94699.72;5015299;28;20446;-81
2022/08/01 02:08:08;;;;;;;4.80;4.50;;;;;;;23.83;57.86;94693.31;5035014;28;20434;-81
2022/08/01 02:10:37;;;;;;;4.77;4.37;;;;;;;23.85;57.17;94691.22;5034823;28;20443;-80
2022/08/01 02:13:06;;;;;;;8.10;4.87;;;;;;;23.79;57.02;94700.97;5034535;28;20450;-81
2022/08/01 02:15:38;;;;;;;5.83;4.70;;;;;;;23.88;57.06;94698.00;5034998;28;20533;-82
2022/08/01 02:18:08;;;;;;;5.63;4.87;;;;;;;23.85;56.26;94696.59;5034304;28;20463;-81
2022/08/01 02:20:37;;;;;;;4.43;4.03;;;;;;;23.81;57.57;94703.41;5034592;28;20458;-81
2022/08/01 02:23:11;;;;;;;5.47;4.90;;;;;;;23.89;56.62;94699.66;5034263;28;20814;-79
2022/08/01 02:25:43;;;;;;;4.63;4.23;;;;;;;23.85;56.51;94701.94;5034459;28;20453;-81
2022/08/01 02:28:14;;;;;;;4.77;4.27;;;;;;;23.83;56.65;94693.31;5034695;28;20538;-81
2022/08/01 02:30:45;;;;;;;4.50;4.10;;;;;;;23.84;55.76;94686.91;5033839;28;20454;-81
2022/08/01 02:33:17;;;;;;;4.57;4.20;;;;;;;23.83;56.00;94682.59;5034488;28;20438;-78
2022/08/01 02:35:51;;;;;;;5.73;4.13;;;;;;;23.76;55.49;94689.84;5034370;28;20446;-81
2022/08/01 02:38:19;;;;;;;4.87;4.47;;;;;;;23.72;56.01;94684.13;5033971;28;20462;-80
2022/08/01 02:40:49;;;;;;;5.50;5.00;;;;;;;23.69;55.07;94689.88;5033877;28;20461;-79
2022/08/01 02:43:19;;;;;;;5.80;4.03;;;;;;;23.84;55.35;94694.94;5033958;28;20945;-80
2022/08/01 02:45:52;;;;;;;5.13;4.63;;;;;;;23.86;55.25;94690.19;5033117;28;20863;-81
2022/08/01 02:48:22;;;;;;;5.07;4.57;;;;;;;23.82;54.74;94691.66;5033983;28;20446;-81
2022/08/01 02:50:53;;;;;;;4.10;3.83;;;;;;;23.84;54.93;94684.22;5033752;28;20435;-82
2022/08/01 02:53:23;;;;;;;7.20;4.37;;;;;;;23.74;54.33;94689.25;5033643;28;20457;-81
2022/08/01 02:55:52;;;;;;;4.70;4.30;;;;;;;23.71;54.74;94687.81;5034209;28;20450;-81
2022/08/01 02:58:21;;;;;;;4.80;4.40;;;;;;;23.77;54.53;94689.63;5015483;28;20446;-81
2022/08/01 03:00:48;;;;;;;4.50;4.20;;;;;;;23.72;54.55;94697.50;5033929;28;21000;-81
2022/08/01 03:03:17;;;;;;;4.17;3.87;;;;;;;23.77;54.03;94700.34;5033999;28;20450;-81
2022/08/01 03:05:45;;;;;;;7.63;4.27;;;;;;;23.57;54.58;94699.66;5033824;28;20451;-81
2022/08/01 03:08:16;;;;;;;5.47;3.83;;;;;;;23.72;54.68;94696.69;5033564;28;20443;-81
2022/08/01 03:10:46;;;;;;;4.63;4.33;;;;;;;23.64;54.41;94697.75;5033206;28;20573;-80
2022/08/01 03:13:15;;;;;;;4.87;4.47;;;;;;;23.72;54.98;94694.00;5033475;28;20454;-81
2022/08/01 03:15:44;;;;;;;5.23;4.47;;;;;;;23.73;54.70;94699.16;5032479;28;20455;-81
2022/08/01 03:18:13;;;;;;;6.70;4.37;;;;;;;23.71;54.51;94700.41;5033177;28;20446;-81
2022/08/01 03:20:41;;;;;;;6.20;4.40;;;;;;;23.80;54.77;94699.09;5033597;28;20446;-80
2022/08/01 03:23:10;;;;;;;5.00;4.57;;;;;;;23.69;55.00;94697.09;5033477;28;20454;-81
2022/08/01 03:25:41;;;;;;;4.43;4.13;;;;;;;23.59;54.35;94696.75;5033688;28;20443;-81
2022/08/01 03:28:09;;;;;;;4.17;3.80;;;;;;;23.56;54.46;94699.88;5033505;28;20475;-81
2022/08/01 03:30:38;;;;;;;3.90;3.60;;;;;;;23.48;55.33;94703.59;5033598;28;20465;-81
2022/08/01 03:33:06;;;;;;;4.03;3.73;;;;;;;23.53;54.57;94702.94;5033042;28;20431;-81
2022/08/01 03:35:37;;;;;;;4.27;3.93;;;;;;;23.58;54.62;94708.50;5033416;28;20769;-82
2022/08/01 03:38:10;;;;;;;4.10;3.63;;;;;;;23.60;54.89;94709.94;5033446;28;20474;-82
2022/08/01 03:40:41;;;;;;;3.60;3.40;;;;;;;23.63;54.70;94709.50;5033142;28;20451;-79
2022/08/01 03:43:11;;;;;;;4.80;4.40;;;;;;;23.68;55.55;94717.72;5033226;28;20474;-79
2022/08/01 03:45:43;;;;;;;5.10;3.70;;;;;;;23.73;55.05;94720.59;5032986;28;20435;-80
2022/08/01 03:48:13;;;;;;;4.50;4.20;;;;;;;23.60;55.07;94709.94;5033369;28;20493;-81
2022/08/01 03:50:43;;;;;;;4.23;3.93;;;;;;;23.38;56.19;94720.09;5032785;28;20454;-81
2022/08/01 03:53:12;;;;;;;6.80;4.70;;;;;;;23.23;55.63;94711.53;5014395;28;20913;-80
2022/08/01 03:55:42;;;;;;;4.63;4.23;;;;;;;23.04;56.40;94707.06;5032871;28;20477;-81
2022/08/01 03:58:10;;;;;;;5.60;4.70;;;;;;;22.92;56.84;94712.25;5033238;28;20538;-81
2022/08/01 04:00:39;;;;;;;6.87;4.50;;;;;;;23.03;55.97;94716.13;5033152;28;20980;-79
2022/08/01 04:03:09;;;;;;;5.17;4.70;;;;;;;23.38;55.87;94701.34;5032955;28;20917;-80
2022/08/01 04:05:36;;;;;;;7.50;3.33;;;;;;;23.83;54.93;94717.44;5032528;28;20490;-79
2022/08/01 04:08:03;;;;;;;6.63;3.80;;;;;;;24.29;52.48;94705.59;5032550;28;20991;-80
2022/08/01 04:10:30;;;;;;;5.20;3.93;;;;;;;24.51;51.18;94711.34;5032828;28;20799;-81
2022/08/01 04:12:59;;;;;;;6.23;4.17;;;;;;;24.62;51.70;94702.59;5033204;28;20447;-81
2022/08/01 04:15:25;;;;;;;3.70;3.50;;;;;;;24.76;50.52;94700.59;5032954;28;20450;-80
2022/08/01 04:17:53;;;;;;;7.63;3.43;;;;;;;24.98;49.32;94708.03;5032621;28;21003;-79
2022/08/01 04:20:20;;;;;;;4.07;3.77;;;;;;;25.08;49.79;94706.69;5032188;28;20474;-89
2022/08/01 04:22:47;;;;;;;18.57;4.30;;;;;;;25.47;48.60;94719.66;5033715;28;20523;-89
2022/08/01 04:25:21;;;;;;;8.23;4.37;;;;;;;25.75;48.03;94713.72;5033697;28;20454;-89
2022/08/01 04:27:50;;;;;;;20.47;16.63;;;;;;;26.14;47.35;94711.50;5035605;28;20513;-88
2022/08/01 04:30:21;;;;;;;115.90;63.60;;;;;;;26.48;44.64;94707.25;5037205;28;20443;-87
2022/08/01 04:32:49;;;;;;;24.07;13.87;;;;;;;26.67;43.76;94710.66;5037017;28;20450;-90
2022/08/01 04:35:19;;;;;;;5.03;4.53;;;;;;;26.77;43.72;94706.31;5037094;28;20461;-91
2022/08/01 04:37:50;;;;;;;3.60;3.30;;;;;;;26.82;43.71;94701.03;5037257;28;20477;-89
2022/08/01 04:40:18;;;;;;;4.70;3.33;;;;;;;26.83;44.06;94704.56;5037302;28;20554;-90
2022/08/01 04:42:45;;;;;;;4.90;4.17;;;;;;;26.79;43.50;94693.44;5036611;28;20451;-88
2022/08/01 04:45:12;;;;;;;7.60;3.30;;;;;;;26.76;44.63;94693.09;5036896;28;20463;-88
2022/08/01 04:47:42;;;;;;;4.10;3.80;;;;;;;26.81;44.03;94685.13;5036294;28;20490;-88
2022/08/01 04:50:11;;;;;;;5.90;3.10;;;;;;;26.88;44.13;94695.78;5035800;28;20806;-88
2022/08/01 04:52:41;;;;;;;4.63;3.43;;;;;;;26.94;43.57;94703.75;4985571;28;20459;-87
2022/08/01 04:55:10;;;;;;;5.77;3.33;;;;;;;26.86;44.29;94699.53;5037037;28;20454;-88
2022/08/01 04:57:40;;;;;;;5.73;3.90;;;;;;;26.78;45.43;94696.38;5036572;28;20465;-89
2022/08/01 05:00:08;;;;;;;7.73;4.90;;;;;;;26.87;45.48;94684.19;5036594;28;20468;-89
2022/08/01 05:02:34;;;;;;;5.83;4.50;;;;;;;26.90;46.27;94680.22;5036818;28;20934;-88
2022/08/01 05:05:05;;;;;;;5.43;3.80;;;;;;;26.92;46.09;94684.31;5037440;28;20438;-89
2022/08/01 05:07:32;;;;;;;4.40;4.00;;;;;;;26.77;45.49;94686.66;5018442;28;20485;-91
2022/08/01 05:10:01;;;;;;;3.60;3.40;;;;;;;26.82;45.31;94686.75;5036867;28;20450;-92
2022/08/01 05:12:28;;;;;;;4.17;3.70;;;;;;;26.90;45.81;94688.31;5036797;28;20454;-89
2022/08/01 05:14:55;;;;;;;4.67;4.27;;;;;;;26.84;47.05;94687.34;5036640;28;20458;-91
2022/08/01 05:17:22;;;;;;;4.60;4.20;;;;;;;26.93;47.80;94680.56;5036122;28;20942;-91
2022/08/01 05:19:49;;;;;;;5.60;5.03;;;;;;;26.75;49.12;94683.38;5036872;28;20439;-91
2022/08/01 05:22:17;;;;;;;5.83;5.33;;;;;;;26.78;50.01;94682.91;5036371;28;20465;-92
2022/08/01 05:24:46;;;;;;;6.63;5.90;;;;;;;26.64;49.93;94682.34;5035888;28;20520;-91
2022/08/01 05:27:13;;;;;;;6.17;5.50;;;;;;;26.73;49.12;94674.72;5035445;28;20552;-88
2022/08/01 05:29:40;;;;;;;6.17;5.63;;;;;;;26.78;50.02;94680.22;5035282;28;20486;-87
2022/08/01 05:32:09;;;;;;;6.97;6.27;;;;;;;26.51;50.27;94691.44;5035584;28;20446;-89
2022/08/01 05:34:37;;;;;;;6.80;5.83;;;;;;;25.99;52.65;94689.59;5035964;28;20458;-89
2022/08/01 05:37:03;;;;;;;10.20;6.60;;;;;;;25.96;52.13;94688.19;5033894;28;20465;-90
2022/08/01 05:39:32;;;;;;;7.03;6.50;;;;;;;26.04;52.53;94685.19;5033385;28;20443;-90
2022/08/01 05:41:59;;;;;;;6.43;5.83;;;;;;;26.03;52.19;94688.09;5034434;28;20447;-92
2022/08/01 05:44:26;;;;;;;8.90;6.97;;;;;;;25.99;50.21;94686.91;5034242;28;20455;-90
2022/08/01 05:46:53;;;;;;;9.43;6.37;;;;;;;26.15;51.38;94680.88;5033783;28;20461;-89
2022/08/01 05:49:20;;;;;;;7.40;6.67;;;;;;;26.29;51.47;94682.28;5024000;28;20439;-86
2022/08/01 05:51:47;;;;;;;7.63;6.93;;;;;;;26.12;50.36;94689.41;5019957;28;20537;-87
2022/08/01 05:54:13;;;;;;;11.80;7.53;;;;;;;25.96;51.76;94690.88;5035083;28;20443;-87
2022/08/01 05:56:42;;;;;;;7.77;6.97;;;;;;;25.64;52.00;94692.97;5034993;28;20953;-87
2022/08/01 05:59:09;;;;;;;7.80;7.10;;;;;;;25.97;51.62;94694.38;5035020;28;20485;-87
2022/08/01 06:01:35;;;;;;;10.30;6.53;;;;;;;26.21;51.37;94688.00;5034953;28;20465;-84
2022/08/01 06:04:02;;;;;;;9.90;6.80;;;;;;;26.44;50.12;94685.38;5035385;28;20463;-86
2022/08/01 06:06:29;;;;;;;13.43;6.53;;;;;;;26.78;50.28;94694.50;5035188;28;20501;-86
2022/08/01 06:08:56;;;;;;;11.43;6.90;;;;;;;27.01;49.67;94692.88;5034896;28;20478;-87
2022/08/01 06:11:23;;;;;;;9.23;7.27;;;;;;;27.08;47.92;94702.47;5035086;28;20435;-88
2022/08/01 06:13:51;;;;;;;16.50;12.90;;;;;;;27.20;49.43;94694.38;5034988;28;20504;-86
2022/08/01 06:16:18;;;;;;;16.53;10.80;;;;;;;27.19;48.05;94697.31;5034661;28;20937;-87
2022/08/01 06:18:45;;;;;;;11.13;7.50;;;;;;;27.38;47.91;94701.47;5034690;28;20808;-87
2022/08/01 06:21:12;;;;;;;11.10;7.30;;;;;;;27.67;47.80;94696.94;5032814;28;20466;-86
2022/08/01 06:23:39;;;;;;;10.73;6.17;;;;;;;27.64;48.02;94684.75;5034677;28;20446;-89
2022/08/01 06:26:06;;;;;;;9.83;6.70;;;;;;;27.97;47.55;94684.00;5034315;28;20435;-84
2022/08/01 06:28:33;;;;;;;4.90;4.50;;;;;;;28.00;41.06;94694.31;5034379;28;21119;-86
2022/08/01 06:31:01;;;;;;;4.67;3.27;;;;;;;28.02;38.77;94686.78;5034612;28;20802;-87
2022/08/01 06:33:29;;;;;;;6.63;3.50;;;;;;;27.97;38.45;94693.97;5034377;28;20455;-89
2022/08/01 06:35:55;;;;;;;3.77;3.37;;;;;;;28.00;38.21;94697.00;5033452;28;20455;-86
2022/08/01 06:38:24;;;;;;;3.57;3.37;;;;;;;27.72;38.38;94684.38;5032924;28;20443;-87
2022/08/01 06:40:51;;;;;;;6.53;4.00;;;;;;;27.69;38.88;94671.38;5033316;28;20825;-87
2022/08/01 06:43:21;;;;;;;3.57;3.27;;;;;;;27.71;38.53;94677.34;5032949;28;21497;-87
2022/08/01 06:45:48;;;;;;;4.40;3.07;;;;;;;27.79;38.31;94669.94;5014408;28;20446;-89
2022/08/01 06:48:17;;;;;;;4.50;4.10;;;;;;;27.64;38.66;94668.59;5032915;28;20479;-89
2022/08/01 06:50:43;;;;;;;3.77;3.47;;;;;;;27.65;38.80;94667.53;5033085;28;20450;-87
2022/08/01 06:53:10;;;;;;;3.70;3.40;;;;;;;27.48;39.11;94663.94;5032937;28;20441;-84
2022/08/01 06:55:38;;;;;;;3.30;3.10;;;;;;;27.20;38.62;94651.25;5035290;28;20451;-89
2022/08/01 06:58:05;;;;;;;3.50;3.20;;;;;;;27.25;39.89;94672.09;5033891;28;20477;-88
2022/08/01 07:00:32;;;;;;;5.53;3.43;;;;;;;27.33;38.83;94647.47;5033195;28;20470;-88
2022/08/01 07:02:59;;;;;;;3.30;3.10;;;;;;;27.30;40.06;94661.41;5034259;28;20442;-88
2022/08/01 07:05:30;;;;;;;3.27;3.03;;;;;;;27.11;40.54;94663.44;5034009;28;20450;-88
2022/08/01 07:07:57;;;;;;;5.43;3.83;;;;;;;27.13;40.06;94659.47;5033526;28;20568;-87
2022/08/01 07:10:24;;;;;;;3.73;3.43;;;;;;;27.29;39.79;94665.16;5033032;28;20454;-89
2022/08/01 07:12:51;;;;;;;4.40;3.40;;;;;;;27.38;40.37;94655.66;5034174;28;20470;-85
2022/08/01 07:15:20;;;;;;;3.67;3.37;;;;;;;27.33;39.67;94661.75;5033816;28;20446;-90
2022/08/01 07:17:47;;;;;;;3.40;3.20;;;;;;;27.74;40.24;94662.56;5034185;28;20437;-87
2022/08/01 07:20:14;;;;;;;3.80;3.50;;;;;;;28.05;39.16;94669.34;5034343;28;20809;-89
2022/08/01 07:22:42;;;;;;;3.80;3.37;;;;;;;27.84;38.74;94670.03;5034036;28;20454;-87
2022/08/01 07:25:10;;;;;;;3.43;3.23;;;;;;;27.69;39.53;94665.16;5034122;28;20819;-88
2022/08/01 07:27:37;;;;;;;6.00;4.00;;;;;;;27.70;39.46;94673.00;5033825;28;20900;-88
2022/08/01 07:30:05;;;;;;;3.80;3.23;;;;;;;27.48;39.85;94680.13;5033786;28;20439;-88
2022/08/01 07:32:32;;;;;;;3.73;3.43;;;;;;;27.42;40.56;94670.28;5033856;28;20445;-88
2022/08/01 07:34:58;;;;;;;3.83;3.53;;;;;;;27.30;40.74;94669.50;5033868;28;20439;-89
2022/08/01 07:37:25;;;;;;;7.13;4.00;;;;;;;27.21;41.42;94674.47;5033480;28;20427;-88
2022/08/01 07:39:53;;;;;;;4.47;4.07;;;;;;;27.16;41.11;94667.06;5033661;28;20447;-87
2022/08/01 07:42:20;;;;;;;4.67;3.90;;;;;;;27.24;41.49;94659.69;5033534;28;20910;-88
2022/08/01 07:44:47;;;;;;;3.30;3.10;;;;;;;27.37;40.20;94667.47;5033864;28;20434;-89
2022/08/01 07:47:15;;;;;;;6.07;3.00;;;;;;;27.30;39.29;94656.84;5032304;28;20446;-88
2022/08/01 07:49:42;;;;;;;3.90;3.50;;;;;;;27.35;40.38;94648.84;5014078;28;20439;-88
2022/08/01 07:52:09;;;;;;;5.90;3.43;;;;;;;27.58;40.80;94650.66;5028627;28;20447;-87
2022/08/01 07:54:36;;;;;;;7.20;3.67;;;;;;;27.59;39.71;94638.81;5013891;28;20454;-87
2022/08/01 07:57:07;;;;;;;4.13;3.67;;;;;;;27.82;39.05;94642.47;5014214;28;20447;-88
2022/08/01 07:59:35;;;;;;;3.93;2.77;;;;;;;27.76;38.95;94655.88;5013454;28;20475;-87
2022/08/01 08:02:02;;;;;;;8.10;3.40;;;;;;;27.76;39.13;94652.38;5013194;28;20446;-90
2022/08/01 08:04:29;;;;;;;3.73;3.37;;;;;;;27.34;39.59;94666.09;5017627;28;20458;-87
2022/08/01 08:06:56;;;;;;;4.17;3.93;;;;;;;26.69;39.83;94660.09;5017884;28;20437;-88
2022/08/01 08:09:23;;;;;;;4.17;3.50;;;;;;;26.64;40.56;94658.13;5017536;28;20479;-82
2022/08/01 08:11:49;;;;;;;8.90;3.57;;;;;;;26.72;41.10;94667.69;5018139;28;20442;-89
2022/08/01 08:14:18;;;;;;;4.20;3.73;;;;;;;26.86;40.89;94667.19;5017522;28;20448;-86
2022/08/01 08:16:46;;;;;;;6.40;4.17;;;;;;;27.12;40.95;94668.59;5017956;28;20440;-88
2022/08/01 08:19:13;;;;;;;19.77;4.53;;;;;;;27.36;40.94;94674.75;5017493;28;20478;-88
2022/08/01 08:21:40;;;;;;;4.20;3.90;;;;;;;27.54;43.06;94667.56;5017515;28;20930;-90
2022/08/01 08:24:23;;;;;;;5.83;3.80;;;;;;;27.32;39.98;94668.19;5028965;28;20456;-89
2022/08/01 08:26:52;;;;;;;3.80;3.20;;;;;;;27.04;41.43;94660.91;5018291;28;21004;-85
2022/08/01 08:29:21;;;;;;;3.93;3.63;;;;;;;26.94;40.93;94657.97;5031902;28;20498;-86
2022/08/01 08:31:48;;;;;;;4.40;4.00;;;;;;;27.16;41.47;94658.16;5036481;28;20442;-89
2022/08/01 08:34:15;;;;;;;4.53;4.13;;;;;;;27.32;41.03;94670.09;5025550;28;20472;-89
2022/08/01 08:36:42;;;;;;;13.23;4.00;;;;;;;27.39;39.88;94676.16;5036916;28;20466;-85
2022/08/01 08:39:09;;;;;;;4.17;3.30;;;;;;;27.41;39.40;94679.41;5036795;28;20442;-88
2022/08/01 08:41:37;;;;;;;5.43;3.87;;;;;;;27.45;38.40;94667.91;5036657;28;21003;-88
2022/08/01 08:44:04;;;;;;;5.90;3.37;;;;;;;27.19;40.14;94662.28;5037385;28;20442;-87
2022/08/01 08:46:34;;;;;;;5.07;3.57;;;;;;;27.20;39.70;94663.91;5036691;28;20456;-87
2022/08/01 08:49:03;;;;;;;4.33;3.57;;;;;;;27.19;40.93;94668.50;5036988;28;20474;-89
2022/08/01 08:51:31;;;;;;;4.90;3.90;;;;;;;27.22;40.32;94669.88;5036925;28;20441;-87
2022/08/01 08:53:58;;;;;;;3.90;3.70;;;;;;;27.36;40.59;94665.84;5036214;28;20922;-89
2022/08/01 08:57:14;;;;;;;7.00;4.10;;;;;;;27.33;39.75;94663.63;5036638;28;20438;-87
2022/08/01 08:59:43;;;;;;;4.43;4.03;;;;;;;27.10;40.48;94664.50;5036780;28;20478;-89
2022/08/01 09:02:11;;;;;;;3.33;3.13;;;;;;;26.69;40.08;94665.47;5036592;28;20835;-86
2022/08/01 09:04:40;;;;;;;3.83;3.63;;;;;;;26.70;41.65;94659.03;5036000;28;20455;-89
2022/08/01 09:07:07;;;;;;;4.30;3.90;;;;;;;26.84;40.63;94665.81;5036430;28;20862;-87
2022/08/01 09:09:34;;;;;;;4.70;4.30;;;;;;;27.01;40.20;94652.47;5036483;28;20948;-88
2022/08/01 09:12:01;;;;;;;4.47;4.17;;;;;;;27.03;39.99;94655.75;5018147;28;20446;-87
2022/08/01 09:14:30;;;;;;;4.00;3.57;;;;;;;26.95;40.08;94654.22;5035311;28;20442;-89
2022/08/01 09:17:02;;;;;;;3.70;3.40;;;;;;;27.02;39.63;94646.84;5036338;28;20925;-85
2022/08/01 09:19:37;;;;;;;6.33;4.40;;;;;;;27.13;39.73;94658.63;5036557;28;20485;-89
2022/08/01 09:22:06;;;;;;;3.17;2.87;;;;;;;27.12;38.50;94652.44;5035540;28;20798;-88
2022/08/01 09:24:34;;;;;;;11.77;8.83;;;;;;;27.04;37.90;94641.22;5033968;28;20464;-89
2022/08/01 09:27:02;;;;;;;6.97;3.23;;;;;;;26.98;37.62;94645.66;5016129;28;20451;-85
2022/08/01 09:29:31;;;;;;;3.23;2.93;;;;;;;27.01;38.26;94642.53;5016122;28;20969;-90
2022/08/01 09:31:59;;;;;;;4.50;3.37;;;;;;;27.02;38.15;94638.75;5016874;28;20860;-91
2022/08/01 09:34:27;;;;;;;4.23;3.13;;;;;;;27.05;39.14;94637.47;5016207;28;20443;-90
2022/08/01 09:36:57;;;;;;;4.00;3.70;;;;;;;27.12;39.70;94633.56;5016028;28;20448;-88
2022/08/01 09:39:25;;;;;;;5.00;3.83;;;;;;;27.15;39.16;94641.19;5016228;28;20444;-86
2022/08/01 09:41:53;;;;;;;3.33;3.03;;;;;;;26.99;38.27;94636.56;5016108;28;20450;-87
2022/08/01 09:44:20;;;;;;;4.90;3.67;;;;;;;26.89;38.73;94632.78;5014625;28;20790;-91
2022/08/01 09:46:55;;;;;;;5.37;2.93;;;;;;;27.03;38.66;94635.00;5016624;28;20458;-84
2022/08/01 09:49:30;;;;;;;4.03;3.30;;;;;;;27.06;39.39;94633.72;5015475;28;20479;-87
2022/08/01 09:51:59;;;;;;;15.20;3.23;;;;;;;27.17;39.97;94640.94;5015367;28;20427;-87
2022/08/01 09:54:31;;;;;;;3.40;3.20;;;;;;;27.00;38.95;94623.91;5015269;28;20915;-87
2022/08/01 09:57:10;;;;;;;3.47;3.27;;;;;;;27.09;38.76;94634.06;5015318;28;20446;-86
2022/08/01 09:59:40;;;;;;;3.20;2.83;;;;;;;27.14;37.69;94634.16;5015347;28;20525;-88
2022/08/01 10:02:08;;;;;;;3.70;3.40;;;;;;;27.05;39.12;94622.13;5013204;28;20455;-86
2022/08/01 10:04:35;;;;;;;3.50;3.20;;;;;;;26.99;38.47;94628.47;5029708;28;20446;-86
2022/08/01 10:07:08;;;;;;;3.47;3.17;;;;;;;26.91;38.58;94619.91;5034439;28;20542;-85
2022/08/01 10:09:37;;;;;;;5.50;3.30;;;;;;;26.83;39.10;94618.41;5034940;28;20490;-86
2022/08/01 10:12:05;;;;;;;4.00;3.77;;;;;;;26.79;41.50;94612.66;5034701;28;20461;-85
2022/08/01 10:14:33;;;;;;;4.50;4.10;;;;;;;26.90;43.01;94621.78;5016389;28;20526;-86
2022/08/01 10:17:02;;;;;;;4.20;3.90;;;;;;;27.02;40.98;94614.53;5034680;28;20542;-88
2022/08/01 10:19:32;;;;;;;4.53;3.93;;;;;;;26.89;40.76;94609.38;5034690;28;20771;-85
2022/08/01 10:21:59;;;;;;;3.73;3.30;;;;;;;26.61;40.91;94610.13;5034978;28;20781;-85
2022/08/01 10:24:29;;;;;;;4.00;3.70;;;;;;;26.45;41.62;94600.06;5034394;28;20781;-87
2022/08/01 10:27:02;;;;;;;4.03;3.63;;;;;;;26.60;41.03;94603.13;5034307;28;20454;-86
2022/08/01 10:29:34;;;;;;;4.53;4.13;;;;;;;26.68;41.76;94599.25;5034464;28;20581;-87
2022/08/01 10:32:01;;;;;;;6.23;4.00;;;;;;;26.77;42.90;94608.56;5034514;28;20948;-86
2022/08/01 10:34:30;;;;;;;4.30;4.00;;;;;;;26.63;39.99;94605.34;5034417;28;20442;-87
2022/08/01 10:36:58;;;;;;;4.03;3.40;;;;;;;26.45;40.12;94603.59;5034502;28;20438;-87
2022/08/01 10:39:26;;;;;;;7.07;3.80;;;;;;;26.38;41.26;94605.59;5032510;28;20995;-87
2022/08/01 10:41:54;;;;;;;3.13;2.93;;;;;;;26.24;40.84;94593.38;5030068;28;20535;-86
2022/08/01 10:44:22;;;;;;;3.37;3.17;;;;;;;26.37;41.22;94597.75;5014729;28;20448;-85
2022/08/01 10:46:54;;;;;;;5.23;3.40;;;;;;;26.51;42.92;94599.94;5014411;28;20859;-85
2022/08/01 10:49:23;;;;;;;4.13;3.60;;;;;;;26.62;42.92;94606.38;5013957;28;20483;-85
2022/08/01 10:51:50;;;;;;;4.27;3.97;;;;;;;26.72;41.51;94597.72;5014784;28;20991;-87
2022/08/01 10:54:17;;;;;;;8.93;4.10;;;;;;;26.85;42.50;94589.34;5014140;28;20454;-88
2022/08/01 10:56:46;;;;;;;4.20;3.80;;;;;;;26.96;41.86;94609.25;5014718;28;20440;-85
2022/08/01 10:59:22;;;;;;;4.10;3.80;;;;;;;26.84;41.01;94601.19;5014228;28;20970;-88
2022/08/01 11:01:58;;;;;;;3.63;3.30;;;;;;;26.73;41.17;94596.66;5013842;28;20450;-85
2022/08/01 11:04:45;;;;;;;3.73;3.53;;;;;;;26.64;41.63;94596.22;5014113;28;20443;-86
2022/08/01 11:07:19;;;;;;;5.83;3.63;;;;;;;26.79;42.22;94593.81;5015837;28;21021;-86
2022/08/01 11:09:47;;;;;;;3.30;3.00;;;;;;;26.96;41.49;94593.91;5024408;28;20484;-87
2022/08/01 11:12:16;;;;;;;3.73;2.80;;;;;;;26.96;41.78;94585.84;5013575;28;20775;-87
2022/08/01 11:15:26;;;;;;;7.43;3.10;;;;;;;27.05;41.87;94597.06;5011094;28;20498;-86
2022/08/01 11:17:54;;;;;;;7.60;3.40;;;;;;;26.66;41.02;94583.31;5013736;28;20498;-87
2022/08/01 11:20:23;;;;;;;3.50;3.23;;;;;;;26.42;41.97;94596.00;5013945;28;20870;-86
2022/08/01 11:23:27;;;;;;;5.50;3.90;;;;;;;26.31;42.03;94583.34;5013818;28;20428;-85
2022/08/01 11:26:11;;;;;;;3.30;3.10;;;;;;;26.51;42.79;94586.50;5030641;28;21124;-85
2022/08/01 11:28:39;;;;;;;6.83;3.93;;;;;;;26.74;42.60;94582.94;5027682;28;20465;-87
2022/08/01 11:31:33;;;;;;;4.40;4.00;;;;;;;26.74;41.90;94580.25;5032825;28;20921;-88
2022/08/01 11:34:00;;;;;;;4.07;3.73;;;;;;;26.82;41.95;94579.88;5032736;28;20459;-85
2022/08/01 11:36:28;;;;;;;5.13;3.60;;;;;;;26.80;40.88;94584.69;5018737;28;20443;-85
2022/08/01 11:39:15;;;;;;;3.70;3.40;;;;;;;26.88;41.92;94583.50;5013755;28;20439;-85
2022/08/01 11:41:43;;;;;;;3.20;3.00;;;;;;;26.88;40.51;94570.03;5013465;28;20509;-85